createdAt,value
2019-01-29T00:01:13.898Z,11.17
2019-01-29T00:03:41.534Z,11.97
2019-01-29T00:06:09.177Z,9.67
2019-01-29T00:08:36.860Z,10.47
2019-01-29T00:11:04.823Z,9.70
2019-01-29T00:13:35.252Z,8.77
2019-01-29T00:16:03.729Z,9.90
2019-01-29T00:18:31.278Z,10.50
2019-01-29T00:20:59.263Z,11.23
2019-01-29T00:23:27.131Z,11.93
2019-01-29T00:25:54.734Z,10.53
2019-01-29T00:28:22.433Z,11.03
2019-01-29T00:30:50.094Z,8.57
2019-01-29T00:33:18.066Z,11.77
2019-01-29T00:35:46.239Z,14.00
2019-01-29T00:38:14.003Z,13.00
2019-01-29T00:40:41.973Z,10.13
2019-01-29T00:43:10.161Z,10.63
2019-01-29T00:45:37.955Z,11.70
2019-01-29T00:48:05.870Z,11.07
2019-01-29T00:50:36.891Z,7.80
2019-01-29T00:53:04.727Z,11.77
2019-01-29T00:55:32.386Z,8.00
2019-01-29T00:58:00.127Z,12.30
2019-01-29T01:00:28.265Z,12.03
2019-01-29T01:02:56.362Z,11.93
2019-01-29T01:05:23.948Z,11.00
2019-01-29T01:07:52.002Z,11.53
2019-01-29T01:10:20.448Z,14.27
2019-01-29T01:12:48.528Z,14.60
2019-01-29T01:15:18.522Z,12.27
2019-01-29T01:17:46.193Z,14.20
2019-01-29T01:20:14.885Z,14.03
2019-01-29T01:22:50.321Z,9.73
2019-01-29T01:25:12.565Z,12.03
2019-01-29T01:27:40.392Z,13.13
2019-01-29T01:30:09.860Z,10.37
2019-01-29T01:32:38.097Z,12.30
2019-01-29T01:35:05.961Z,11.63
2019-01-29T01:37:33.919Z,11.67
2019-01-29T01:40:02.003Z,11.23
2019-01-29T01:42:29.821Z,12.17
2019-01-29T01:44:57.750Z,10.03
2019-01-29T01:47:25.603Z,10.60
2019-01-29T01:49:53.624Z,11.50
2019-01-29T01:52:21.574Z,10.13
2019-01-29T01:54:49.497Z,8.70
2019-01-29T01:57:17.505Z,10.23
2019-01-29T01:59:45.367Z,11.27
2019-01-29T02:02:13.315Z,9.37
2019-01-29T02:04:41.245Z,12.10
2019-01-29T02:07:11.597Z,12.03
2019-01-29T02:09:39.395Z,10.80
2019-01-29T02:12:07.321Z,17.40
2019-01-29T02:14:35.124Z,8.73
2019-01-29T02:17:05.611Z,11.40
2019-01-29T02:19:33.514Z,9.13
2019-01-29T02:22:01.289Z,10.63
2019-01-29T02:24:29.549Z,9.10
2019-01-29T02:26:57.273Z,6.67
2019-01-29T02:29:25.073Z,10.27
2019-01-29T02:31:52.902Z,6.73
2019-01-29T02:34:20.644Z,7.77
2019-01-29T02:36:48.426Z,12.17
2019-01-29T02:39:16.198Z,12.77
2019-01-29T02:41:44.377Z,8.73
2019-01-29T02:44:12.130Z,14.23
2019-01-29T02:46:39.817Z,7.87
2019-01-29T02:49:07.485Z,9.13
2019-01-29T02:51:35.180Z,8.30
2019-01-29T02:54:03.095Z,9.70
2019-01-29T02:56:30.842Z,11.70
2019-01-29T02:58:58.911Z,10.47
2019-01-29T03:01:26.777Z,9.80
2019-01-29T03:03:54.772Z,11.20
2019-01-29T03:06:22.721Z,12.27
2019-01-29T03:08:50.648Z,9.67
2019-01-29T03:11:18.954Z,8.40
2019-01-29T03:13:46.494Z,9.70
2019-01-29T03:16:14.337Z,10.43
2019-01-29T03:18:42.151Z,6.33
2019-01-29T03:21:09.906Z,10.37
2019-01-29T03:23:37.692Z,8.40
2019-01-29T03:26:05.468Z,8.97
2019-01-29T03:28:33.316Z,8.63
2019-01-29T03:31:01.029Z,11.87
2019-01-29T03:33:28.627Z,8.53
2019-01-29T03:35:56.524Z,13.83
2019-01-29T03:38:24.446Z,8.50
2019-01-29T03:40:52.554Z,9.90
2019-01-29T03:43:20.200Z,9.23
2019-01-29T03:45:47.948Z,8.67
2019-01-29T03:48:15.645Z,8.57
2019-01-29T03:50:43.361Z,10.10
2019-01-29T03:53:12.867Z,14.10
2019-01-29T03:55:40.645Z,12.07
2019-01-29T03:58:08.383Z,9.73
2019-01-29T04:00:36.156Z,13.50
2019-01-29T04:03:03.826Z,10.27
2019-01-29T04:05:31.444Z,10.60
2019-01-29T04:07:59.450Z,11.73
2019-01-29T04:10:27.233Z,9.17
2019-01-29T04:12:55.392Z,7.50
2019-01-29T04:15:23.487Z,10.20
2019-01-29T04:17:54.098Z,9.97
2019-01-29T04:20:21.739Z,13.60
2019-01-29T04:22:49.523Z,8.03
2019-01-29T04:25:17.233Z,10.83
2019-01-29T04:27:44.944Z,12.13
2019-01-29T04:30:13.979Z,11.60
2019-01-29T04:32:41.607Z,13.90
2019-01-29T04:35:09.545Z,16.50
2019-01-29T04:37:37.664Z,12.83
2019-01-29T04:40:06.208Z,12.63
2019-01-29T04:42:34.412Z,13.30
2019-01-29T04:45:01.975Z,10.80
2019-01-29T04:47:29.647Z,10.97
2019-01-29T04:49:57.453Z,9.47
2019-01-29T04:52:26.761Z,11.30
2019-01-29T04:54:57.667Z,13.87
2019-01-29T04:57:28.057Z,10.33
2019-01-29T04:59:55.783Z,12.47
2019-01-29T05:02:24.611Z,10.93
2019-01-29T05:04:52.434Z,12.50
2019-01-29T05:07:20.508Z,14.13
2019-01-29T05:09:48.578Z,12.40
2019-01-29T05:12:16.645Z,20.43
2019-01-29T05:14:44.440Z,21.57
2019-01-29T05:17:12.506Z,91.60
2019-01-29T05:19:40.558Z,25.70
2019-01-29T05:22:08.831Z,31.03
2019-01-29T05:24:37.084Z,28.40
2019-01-29T05:27:05.066Z,44.73
2019-01-29T05:29:32.923Z,87.97
2019-01-29T05:32:00.759Z,31.27
2019-01-29T05:34:28.555Z,21.00
2019-01-29T05:36:56.528Z,12.13
2019-01-29T05:39:24.128Z,22.33
2019-01-29T05:41:52.565Z,15.13
2019-01-29T05:44:20.195Z,14.97
2019-01-29T05:46:47.987Z,20.53
2019-01-29T05:49:15.850Z,14.57
2019-01-29T05:51:43.440Z,23.37
2019-01-29T05:54:16.421Z,26.60
2019-01-29T05:56:40.918Z,15.10
2019-01-29T05:59:09.104Z,70.77
2019-01-29T06:01:36.949Z,15.47
2019-01-29T06:04:05.095Z,14.10
2019-01-29T06:06:32.671Z,17.47
2019-01-29T06:09:00.565Z,20.33
2019-01-29T06:11:28.373Z,17.33
2019-01-29T06:13:56.466Z,16.27
2019-01-29T06:16:24.340Z,13.43
2019-01-29T06:18:52.386Z,13.90
2019-01-29T06:21:20.247Z,19.10
2019-01-29T06:23:48.012Z,13.97
2019-01-29T06:26:15.566Z,16.20
2019-01-29T06:28:43.316Z,15.13
2019-01-29T06:31:11.112Z,13.73
2019-01-29T06:33:39.165Z,15.77
2019-01-29T06:36:07.008Z,17.70
2019-01-29T06:38:34.791Z,11.43
2019-01-29T06:41:02.555Z,16.97
2019-01-29T06:43:30.215Z,15.23
2019-01-29T06:45:58.211Z,14.93
2019-01-29T06:48:26.475Z,15.67
2019-01-29T06:50:54.527Z,15.13
2019-01-29T06:53:22.302Z,14.90
2019-01-29T06:55:50.271Z,18.17
2019-01-29T06:58:17.976Z,13.60
2019-01-29T07:00:45.799Z,17.33
2019-01-29T07:03:16.417Z,20.20
2019-01-29T07:05:44.539Z,18.60
2019-01-29T07:08:12.663Z,17.97
2019-01-29T07:10:40.564Z,15.37
2019-01-29T07:13:08.394Z,19.13
2019-01-29T07:16:12.522Z,15.07
2019-01-29T07:18:58.186Z,17.63
2019-01-29T07:21:26.464Z,14.77
2019-01-29T07:23:54.222Z,22.27
2019-01-29T07:26:21.949Z,18.43
2019-01-29T07:28:49.964Z,21.03
2019-01-29T07:31:17.946Z,19.60
2019-01-29T07:33:46.319Z,24.60
2019-01-29T07:36:14.143Z,19.87
2019-01-29T07:38:42.135Z,18.90
2019-01-29T07:41:10.030Z,19.23
2019-01-29T07:43:40.568Z,22.43
2019-01-29T07:46:08.908Z,19.30
2019-01-29T07:48:36.710Z,23.30
2019-01-29T07:51:04.603Z,20.53
2019-01-29T07:53:32.403Z,23.50
2019-01-29T07:55:59.957Z,28.20
2019-01-29T07:58:28.238Z,20.47
2019-01-29T08:00:55.993Z,24.77
2019-01-29T08:03:23.662Z,24.13
2019-01-29T08:05:51.652Z,25.80
2019-01-29T08:08:19.600Z,28.93
2019-01-29T08:10:47.566Z,26.33
2019-01-29T08:13:15.750Z,27.77
2019-01-29T08:15:43.381Z,25.97
2019-01-29T08:18:11.121Z,24.90
2019-01-29T08:20:38.814Z,29.73
2019-01-29T08:23:06.687Z,31.10
2019-01-29T08:25:34.551Z,28.90
2019-01-29T08:28:02.518Z,26.50
2019-01-29T08:30:30.414Z,25.80
2019-01-29T08:32:58.860Z,27.30
2019-01-29T08:35:27.031Z,23.97
2019-01-29T08:37:55.191Z,24.83
2019-01-29T08:40:23.511Z,25.60
2019-01-29T08:42:51.659Z,25.17
2019-01-29T08:45:19.838Z,28.53
2019-01-29T08:47:47.596Z,29.70
2019-01-29T08:50:16.932Z,27.17
2019-01-29T08:52:44.857Z,39.73
2019-01-29T08:55:12.930Z,30.03
2019-01-29T08:57:40.746Z,31.97
2019-01-29T09:00:09.336Z,33.50
2019-01-29T09:02:37.234Z,30.53
2019-01-29T09:05:05.808Z,31.47
2019-01-29T09:07:33.657Z,35.00
2019-01-29T09:10:01.490Z,28.80
2019-01-29T09:12:29.206Z,26.17
2019-01-29T09:14:57.283Z,31.93
2019-01-29T09:17:25.154Z,28.97
2019-01-29T09:19:52.913Z,28.57
2019-01-29T09:22:21.000Z,30.73
2019-01-29T09:24:49.047Z,30.50
2019-01-29T09:27:16.816Z,34.50
2019-01-29T09:29:44.789Z,26.63
2019-01-29T09:32:12.671Z,29.37
2019-01-29T09:34:40.535Z,31.13
2019-01-29T09:37:08.690Z,28.17
2019-01-29T09:39:36.449Z,29.30
2019-01-29T09:42:04.933Z,30.93
2019-01-29T09:44:32.691Z,31.00
2019-01-29T09:47:00.908Z,31.70
2019-01-29T09:49:28.937Z,31.33
2019-01-29T09:51:57.209Z,25.57
2019-01-29T09:54:25.315Z,31.57
2019-01-29T09:56:53.181Z,31.27
2019-01-29T09:59:21.177Z,27.97
2019-01-29T10:01:49.178Z,28.03
2019-01-29T10:04:16.935Z,29.17
2019-01-29T10:06:44.703Z,34.00
2019-01-29T10:09:12.802Z,29.23
2019-01-29T10:11:40.503Z,26.33
2019-01-29T10:14:08.224Z,27.80
2019-01-29T10:16:36.267Z,24.80
2019-01-29T10:19:04.372Z,31.47
2019-01-29T10:21:32.311Z,29.57
2019-01-29T10:24:00.059Z,33.37
2019-01-29T10:26:28.549Z,29.37
2019-01-29T10:28:56.514Z,32.90
2019-01-29T10:31:24.429Z,35.37
2019-01-29T10:33:52.424Z,30.80
2019-01-29T10:36:20.319Z,28.13
2019-01-29T10:38:49.618Z,29.93
2019-01-29T10:41:17.492Z,26.60
2019-01-29T10:43:45.245Z,30.30
2019-01-29T10:46:13.356Z,32.10
2019-01-29T10:48:41.133Z,26.80
2019-01-29T10:51:09.554Z,24.97
2019-01-29T10:53:37.233Z,23.67
2019-01-29T10:56:05.188Z,26.17
2019-01-29T10:58:32.998Z,25.87
2019-01-29T11:01:01.337Z,23.97
2019-01-29T11:03:29.808Z,23.30
2019-01-29T11:05:58.082Z,23.20
2019-01-29T11:08:26.164Z,20.50
2019-01-29T11:10:54.221Z,17.83
2019-01-29T11:13:22.108Z,20.70
2019-01-29T11:15:49.809Z,28.13
2019-01-29T11:18:17.781Z,21.80
2019-01-29T11:20:46.203Z,21.33
2019-01-29T11:23:14.281Z,20.13
2019-01-29T11:25:42.100Z,18.63
2019-01-29T11:28:10.206Z,21.50
2019-01-29T11:30:38.396Z,14.03
2019-01-29T11:33:06.546Z,19.83
2019-01-29T11:35:34.185Z,18.37
2019-01-29T11:38:02.188Z,16.63
2019-01-29T11:40:30.037Z,18.57
2019-01-29T11:42:57.910Z,18.87
2019-01-29T11:45:29.679Z,15.63
2019-01-29T11:47:57.646Z,18.03
2019-01-29T11:50:25.803Z,16.47
2019-01-29T11:52:53.770Z,13.00
2019-01-29T11:55:21.593Z,14.97
2019-01-29T11:57:49.502Z,16.40
2019-01-29T12:00:22.652Z,16.30
2019-01-29T12:02:50.404Z,13.73
2019-01-29T12:05:18.421Z,17.33
2019-01-29T12:07:46.201Z,12.63
2019-01-29T12:10:14.299Z,13.67
2019-01-29T12:12:42.083Z,12.40
2019-01-29T12:15:11.169Z,11.20
2019-01-29T12:17:39.297Z,14.97
2019-01-29T12:20:07.767Z,12.33
2019-01-29T12:22:35.517Z,17.47
2019-01-29T12:25:03.612Z,13.40
2019-01-29T12:27:31.519Z,15.30
2019-01-29T12:29:59.732Z,14.47
2019-01-29T12:32:27.889Z,10.53
2019-01-29T12:34:55.570Z,10.60
2019-01-29T12:37:23.263Z,10.57
2019-01-29T12:39:50.980Z,12.20
2019-01-29T12:42:18.855Z,8.57
2019-01-29T12:44:46.722Z,14.23
2019-01-29T12:47:14.590Z,13.53
2019-01-29T12:49:42.924Z,10.53
2019-01-29T12:52:42.378Z,11.40
2019-01-29T12:55:10.715Z,10.00
2019-01-29T12:57:38.609Z,10.83
2019-01-29T13:00:07.463Z,8.83
2019-01-29T13:02:35.368Z,13.20
2019-01-29T13:05:03.590Z,13.90
2019-01-29T13:07:31.925Z,13.03
2019-01-29T13:09:59.854Z,15.90
2019-01-29T13:12:30.381Z,12.73
2019-01-29T13:14:58.007Z,12.43
2019-01-29T13:17:25.844Z,11.33
2019-01-29T13:19:53.699Z,12.53
2019-01-29T13:22:21.264Z,10.83
2019-01-29T13:24:49.111Z,12.97
2019-01-29T13:27:17.192Z,10.43
2019-01-29T13:29:45.270Z,10.37
2019-01-29T13:32:13.053Z,12.57
2019-01-29T13:34:40.972Z,11.20
2019-01-29T13:37:08.979Z,9.50
2019-01-29T13:39:37.060Z,7.27
2019-01-29T13:42:05.121Z,11.00
2019-01-29T13:44:33.174Z,9.00
2019-01-29T13:47:01.224Z,8.10
2019-01-29T13:49:29.108Z,9.47
2019-01-29T13:51:59.411Z,8.90
2019-01-29T13:54:27.136Z,6.50
2019-01-29T13:56:55.189Z,6.33
2019-01-29T13:59:23.435Z,7.53
2019-01-29T14:01:52.008Z,8.23
2019-01-29T14:04:19.690Z,9.83
2019-01-29T14:06:47.657Z,7.87
2019-01-29T14:09:15.733Z,9.33
2019-01-29T14:11:43.702Z,8.07
2019-01-29T14:14:11.893Z,8.30
2019-01-29T14:16:39.923Z,6.67
2019-01-29T14:19:07.915Z,9.03
2019-01-29T14:21:35.863Z,9.50
2019-01-29T14:24:03.873Z,9.70
2019-01-29T14:26:31.693Z,8.57
2019-01-29T14:28:59.857Z,7.03
2019-01-29T14:31:27.765Z,7.80
2019-01-29T14:33:55.697Z,9.90
2019-01-29T14:36:23.624Z,10.97
2019-01-29T14:39:13.706Z,12.77
2019-01-29T14:41:41.599Z,10.93
2019-01-29T14:44:20.475Z,13.17
2019-01-29T14:46:48.297Z,10.87
2019-01-29T14:49:16.186Z,9.17
2019-01-29T14:51:44.049Z,11.20
2019-01-29T14:54:12.015Z,7.30
2019-01-29T14:56:39.982Z,11.90
2019-01-29T14:59:07.948Z,9.77
2019-01-29T15:01:37.009Z,11.20
2019-01-29T15:04:04.694Z,9.10
2019-01-29T15:06:33.101Z,11.63
2019-01-29T15:09:01.063Z,11.20
2019-01-29T15:11:28.737Z,10.10
2019-01-29T15:13:56.773Z,10.97
2019-01-29T15:16:53.614Z,11.23
2019-01-29T15:19:23.679Z,13.70
2019-01-29T15:21:51.458Z,10.60
2019-01-29T15:24:19.369Z,7.57
2019-01-29T15:26:47.125Z,10.47
2019-01-29T15:29:14.826Z,10.57
2019-01-29T15:31:42.384Z,11.83
2019-01-29T15:34:10.226Z,10.10
2019-01-29T15:36:37.986Z,11.87
2019-01-29T15:39:07.683Z,10.60
2019-01-29T15:41:35.268Z,9.10
2019-01-29T15:44:03.028Z,10.33
2019-01-29T15:46:30.804Z,11.20
2019-01-29T15:48:58.527Z,12.07
2019-01-29T15:51:26.498Z,9.83
2019-01-29T15:53:54.261Z,10.30
2019-01-29T15:56:22.069Z,11.70
2019-01-29T15:58:50.060Z,10.63
2019-01-29T16:01:17.876Z,10.00
2019-01-29T16:03:45.628Z,12.07
2019-01-29T16:06:13.337Z,10.67
2019-01-29T16:08:40.985Z,15.03
2019-01-29T16:11:08.861Z,11.73
2019-01-29T16:13:36.972Z,8.97
2019-01-29T16:16:04.659Z,9.97
2019-01-29T16:18:32.442Z,9.07
2019-01-29T16:21:00.411Z,8.77
2019-01-29T16:23:28.132Z,7.67
2019-01-29T16:25:55.827Z,5.80
2019-01-29T16:28:23.871Z,6.53
2019-01-29T16:30:51.765Z,9.57
2019-01-29T16:33:19.648Z,10.03
2019-01-29T16:35:47.705Z,8.97
2019-01-29T16:38:15.535Z,8.23
2019-01-29T16:40:43.501Z,7.47
2019-01-29T16:43:11.563Z,11.43
2019-01-29T16:45:39.483Z,6.63
2019-01-29T16:48:07.820Z,9.03
2019-01-29T16:50:35.672Z,7.00
2019-01-29T16:53:03.978Z,10.33
2019-01-29T16:55:31.895Z,12.37
2019-01-29T16:57:59.881Z,10.33
2019-01-29T17:00:28.598Z,9.50
2019-01-29T17:02:56.236Z,10.30
2019-01-29T17:05:24.196Z,9.73
2019-01-29T17:07:52.270Z,14.60
2019-01-29T17:10:20.215Z,12.70
2019-01-29T17:12:48.102Z,14.83
2019-01-29T17:15:17.417Z,13.17
2019-01-29T17:17:45.383Z,13.27
2019-01-29T17:20:20.199Z,12.00
2019-01-29T17:22:47.954Z,38.93
2019-01-29T17:25:15.929Z,16.50
2019-01-29T17:27:43.707Z,15.30
2019-01-29T17:30:22.200Z,15.07
2019-01-29T17:32:49.896Z,14.20
2019-01-29T17:35:17.530Z,16.30
2019-01-29T17:37:45.229Z,14.03
2019-01-29T17:40:13.666Z,14.30
2019-01-29T17:42:41.579Z,17.97
2019-01-29T17:45:10.524Z,15.17
2019-01-29T17:47:38.016Z,12.67
2019-01-29T17:50:07.618Z,13.57
2019-01-29T17:52:35.183Z,14.40
2019-01-29T17:55:03.463Z,15.23
2019-01-29T17:57:31.280Z,10.47
2019-01-29T17:59:59.217Z,12.37
2019-01-29T18:02:27.022Z,13.83
2019-01-29T18:04:54.936Z,15.07
2019-01-29T18:07:22.963Z,15.37
2019-01-29T18:09:50.936Z,14.40
2019-01-29T18:12:18.776Z,14.30
2019-01-29T18:14:46.389Z,13.23
2019-01-29T18:17:14.073Z,17.07
2019-01-29T18:19:42.071Z,16.03
2019-01-29T18:22:09.949Z,13.20
2019-01-29T18:24:37.638Z,13.13
2019-01-29T18:27:05.406Z,14.07
2019-01-29T18:29:33.077Z,15.13
2019-01-29T18:32:00.680Z,17.87
2019-01-29T18:34:28.547Z,15.10
2019-01-29T18:36:56.617Z,18.50
2019-01-29T18:39:24.259Z,18.17
2019-01-29T18:41:51.802Z,17.30
2019-01-29T18:44:32.086Z,17.93
2019-01-29T18:47:01.326Z,16.57
2019-01-29T18:49:30.791Z,15.20
2019-01-29T18:51:59.924Z,18.87
2019-01-29T18:54:29.087Z,15.67
2019-01-29T18:56:58.164Z,15.83
2019-01-29T18:59:30.018Z,19.00
2019-01-29T19:02:02.504Z,21.10
2019-01-29T19:04:31.736Z,15.27
2019-01-29T19:07:00.704Z,17.70
2019-01-29T19:09:29.962Z,18.67
2019-01-29T19:11:59.056Z,20.37
2019-01-29T19:14:28.691Z,21.17
2019-01-29T19:16:57.888Z,24.10
2019-01-29T19:19:27.420Z,21.37
2019-01-29T19:21:56.891Z,19.80
2019-01-29T19:24:26.282Z,21.70
2019-01-29T19:26:56.542Z,31.30
2019-01-29T19:29:25.819Z,21.42
2019-01-29T19:31:54.786Z,26.40
2019-01-29T19:34:24.432Z,22.70
2019-01-29T19:36:53.855Z,21.27
2019-01-29T19:39:23.231Z,18.87
2019-01-29T19:41:52.835Z,21.70
2019-01-29T19:44:22.484Z,20.40
2019-01-29T19:46:52.139Z,22.03
2019-01-29T19:49:21.912Z,21.75
2019-01-29T19:51:51.245Z,21.00
2019-01-29T19:54:20.522Z,19.40
2019-01-29T19:56:50.151Z,20.02
2019-01-29T19:59:19.561Z,26.23
2019-01-29T20:01:49.013Z,21.90
2019-01-29T20:04:18.655Z,25.87
2019-01-29T20:06:48.084Z,24.55
2019-01-29T20:09:17.554Z,24.65
2019-01-29T20:11:47.327Z,24.45
2019-01-29T20:14:16.559Z,21.55
2019-01-29T20:16:46.071Z,24.33
2019-01-29T20:19:15.923Z,22.90
2019-01-29T20:21:45.171Z,26.35
2019-01-29T20:24:16.895Z,25.02
2019-01-29T20:26:45.747Z,25.72
2019-01-29T20:29:15.166Z,32.80
2019-01-29T20:31:44.714Z,41.65
2019-01-29T20:34:14.166Z,38.05
2019-01-29T20:36:46.110Z,25.85
2019-01-29T20:39:14.554Z,27.17
2019-01-29T20:41:45.519Z,27.87
2019-01-29T20:44:14.644Z,29.45
2019-01-29T20:46:44.126Z,30.72
2019-01-29T20:49:13.226Z,27.75
2019-01-29T20:51:42.465Z,28.20
2019-01-29T20:54:12.020Z,25.85
2019-01-29T20:56:41.545Z,22.60
2019-01-29T20:59:11.054Z,23.95
2019-01-29T21:01:40.653Z,23.42
2019-01-29T21:04:10.276Z,22.20
2019-01-29T21:06:40.152Z,26.95
2019-01-29T21:09:10.073Z,30.82
2019-01-29T21:11:40.135Z,27.52
2019-01-29T21:14:09.571Z,28.85
2019-01-29T21:16:39.052Z,27.77
2019-01-29T21:19:08.587Z,29.20
2019-01-29T21:21:37.986Z,22.73
2019-01-29T21:24:07.496Z,21.02
2019-01-29T21:26:37.056Z,26.30
2019-01-29T21:29:06.649Z,23.50
2019-01-29T21:31:36.000Z,29.32
2019-01-29T21:34:05.220Z,32.13
2019-01-29T21:36:34.829Z,34.08
2019-01-29T21:39:05.938Z,34.40
2019-01-29T21:41:35.363Z,34.70
2019-01-29T21:44:05.074Z,52.43
2019-01-29T21:46:34.460Z,34.27
2019-01-29T21:49:03.721Z,29.92
2019-01-29T21:51:36.041Z,31.00
2019-01-29T21:54:05.429Z,35.58
2019-01-29T21:56:35.117Z,33.05
2019-01-29T21:59:13.130Z,46.18
2019-01-29T22:01:36.247Z,49.03
2019-01-29T22:04:05.806Z,43.90
2019-01-29T22:06:35.389Z,35.00
2019-01-29T22:09:07.546Z,39.85
2019-01-29T22:11:37.512Z,35.40
2019-01-29T22:14:06.989Z,33.90
2019-01-29T22:16:36.416Z,34.18
2019-01-29T22:19:06.198Z,29.35
2019-01-29T22:21:35.585Z,31.42
2019-01-29T22:24:06.010Z,27.07
2019-01-29T22:26:35.379Z,27.67
2019-01-29T22:29:04.839Z,27.60
2019-01-29T22:31:34.507Z,27.27
2019-01-29T22:34:06.203Z,27.62
2019-01-29T22:36:35.498Z,30.37
2019-01-29T22:39:07.416Z,25.72
2019-01-29T22:41:37.086Z,28.10
2019-01-29T22:44:09.854Z,21.27
2019-01-29T22:46:39.683Z,25.60
2019-01-29T22:49:09.220Z,22.73
2019-01-29T22:51:38.841Z,23.20
2019-01-29T22:54:08.556Z,21.20
2019-01-29T22:56:38.301Z,22.50
2019-01-29T22:59:08.093Z,19.50
2019-01-29T23:01:41.804Z,18.82
2019-01-29T23:04:24.296Z,18.80
2019-01-29T23:07:07.652Z,19.50
2019-01-29T23:09:37.313Z,18.40
2019-01-29T23:12:06.789Z,20.95
2019-01-29T23:14:35.962Z,17.90
2019-01-29T23:17:05.450Z,20.68
2019-01-29T23:19:34.949Z,16.52
2019-01-29T23:22:04.462Z,21.87
2019-01-29T23:24:33.849Z,18.82
2019-01-29T23:27:03.172Z,22.80
2019-01-29T23:29:32.673Z,17.25
2019-01-29T23:32:01.894Z,18.10
2019-01-29T23:34:31.576Z,20.62
2019-01-29T23:37:01.098Z,19.82
2019-01-29T23:39:30.370Z,24.10
2019-01-29T23:41:59.946Z,20.40
2019-01-29T23:44:29.632Z,19.70
2019-01-29T23:46:58.984Z,18.27
2019-01-29T23:49:28.627Z,20.48
2019-01-29T23:51:58.310Z,17.27
2019-01-29T23:54:28.157Z,17.98
2019-01-29T23:56:57.485Z,20.70
2019-01-29T23:59:27.475Z,18.67
